Mont Saint Michel — FNMT — position and weather

sailwx.info

Track history (hours):
 
Tides and Currents Weather Stations Pressure Air Temp Water Temp Dewpoint Dewpoint Depression Visibility Wind Speed Wind Dir Waves Ship Positions

Mont Saint Michel

Last reported at 2014-Oct-01 21:33 UTC. Time now 2014-Oct-01 22:30 UTC.
Position N 49°23' W 000°16'.

Length 173 m; beam 29 m.

Type: Ship. MMSI: 227023100.

Date/timePositionNaut miles runAvg speedWind from/ knotsBaromVisibWave heightAir tempDewpointWater temp
2014-Oct-01 21:33N 49°23' W 000°16'6 5.7
2014-Oct-01 20:33N 49°17' W 000°15'0 0.0
2014-Oct-01 19:33N 49°17' W 000°15'1111.1
2014-Oct-01 18:34N 49°28' W 000°16'1818.4
2014-Oct-01 17:34N 49°45' W 000°27'1918.5
2014-Oct-01 16:33N 50°03' W 000°38'2119.1
2014-Oct-01 15:27N 50°22' W 000°50'1719.2
2014-Oct-01 14:34N 50°38' W 000°58'1111.3
2014-Oct-01 13:33N 50°49' W 001°06'0 0.0
2014-Oct-01 12:33N 50°49' W 001°06'5 5.1
2014-Oct-01 11:33N 50°44' W 001°03'1818.3
2014-Oct-01 10:33N 50°27' W 000°51'4019.9
2014-Oct-01 08:33N 49°49' W 000°32'2019.7
2014-Oct-01 07:33N 49°31' W 000°20'1414.2
2014-Oct-01 06:33N 49°17' W 000°15'0 0.0
2014-Oct-01 05:33N 49°17' W 000°15'0 0.1
2014-Oct-01 04:33N 49°17' W 000°15'1414.1
2014-Oct-01 03:33N 49°31' W 000°20'1211.6
2014-Oct-01 02:33N 49°42' W 000°26'1212.5
2014-Oct-01 01:33N 49°54' W 000°33'2416.7
2014-Oct-01 00:07N 50°16' W 000°45'916.4
2014-Sep-30 23:33N 50°25' W 000°51'1616.2
2014-Sep-30 22:33N 50°40' W 000°58'10 9.8
2014-Sep-30 21:33N 50°49' W 001°06'0 0.0
2014-Sep-30 20:33N 50°49' W 001°06'5 5.2
2014-Sep-30 19:33N 50°44' W 001°03'1817.7
2014-Sep-30 18:33N 50°27' W 000°54'2819.6
2014-Sep-30 17:08N 50°01' W 000°39'1220.3
2014-Sep-30 16:33N 49°50' W 000°33'2020.3
2014-Sep-30 15:33N 49°31' W 000°22'1414.3
2014-Sep-30 14:33N 49°17' W 000°15'0 0.0
2014-Sep-30 13:33N 49°17' W 000°15'0 0.0
2014-Sep-30 12:33N 49°17' W 000°15'1717.0
2014-Sep-30 11:33N 49°34' W 000°21'6321.1
2014-Sep-30 08:33N 50°33' W 000°56'1716.6
2014-Sep-30 07:33N 50°48' W 001°07'1 0.9
2014-Sep-30 06:33N 50°49' W 001°06'0 0.1
2014-Sep-30 05:33N 50°49' W 001°06'1312.8
2014-Sep-30 04:33N 50°37' W 000°58'1111.2
2014-Sep-30 03:33N 50°26' W 000°52'1311.4
2014-Sep-30 02:24N 50°14' W 000°45'1011.9
2014-Sep-30 01:33N 50°04' W 000°40'1111.4
2014-Sep-30 00:33N 49°54' W 000°34'1111.5
2014-Sep-29 23:33N 49°43' W 000°28'1111.4
2014-Sep-29 22:33N 49°32' W 000°21'1111.2
2014-Sep-29 21:33N 49°22' W 000°15'5 4.5
2014-Sep-29 20:33N 49°17' W 000°15'0 0.0
2014-Sep-29 19:33N 49°17' W 000°15'0 0.0
2014-Sep-29 18:33N 49°17' W 000°15'0 0.0
2014-Sep-29 17:33N 49°17' W 000°15'0 0.0
2014-Sep-29 16:33N 49°17' W 000°15'0 0.0
2014-Sep-29 15:32N 49°17' W 000°15'0 0.0
2014-Sep-29 14:33N 49°17' W 000°15'0 0.0
2014-Sep-29 13:33N 49°17' W 000°15'3 2.7
2014-Sep-29 12:33N 49°20' W 000°14'2020.4
2014-Sep-29 11:33N 49°39' W 000°25'4419.8
2014-Sep-29 09:20N 50°20' W 000°51'1519.6
2014-Sep-29 08:33N 50°35' W 000°58'1514.6
2014-Sep-29 07:33N 50°48' W 001°07'1 0.9
2014-Sep-29 06:34N 50°49' W 001°06'1 1.3
2014-Sep-29 05:33N 50°47' W 001°07'1212.1
2014-Sep-29 04:33N 50°37' W 000°58'1110.7
2014-Sep-29 03:33N 50°26' W 000°54'1111.2
2014-Sep-29 02:33N 50°16' W 000°48'1211.6
2014-Sep-29 01:33N 50°05' W 000°41'1111.5
2014-Sep-29 00:33N 49°55' W 000°34'1111.3
2014-Sep-28 23:33N 49°44' W 000°27'1111.4
2014-Sep-28 22:33N 49°33' W 000°22'1111.3
2014-Sep-28 21:33N 49°23' W 000°16'5 5.4
2014-Sep-28 20:34N 49°17' W 000°15'0 0.0
2014-Sep-28 19:33N 49°17' W 000°15'0 0.0
2014-Sep-28 18:33N 49°17' W 000°15'0 0.0
2014-Sep-28 17:34N 49°17' W 000°15'0 0.0
2014-Sep-28 16:33N 49°17' W 000°15'0 0.0
2014-Sep-28 15:33N 49°17' W 000°15'0 0.0
2014-Sep-28 14:34N 49°17' W 000°15'0 0.0
2014-Sep-28 13:33N 49°17' W 000°15'5 5.4
2014-Sep-28 12:33N 49°23' W 000°14'1716.8
2014-Sep-28 11:33N 49°38' W 000°24'1817.1
2014-Sep-28 10:32N 49°55' W 000°33'1819.0
2014-Sep-28 09:33N 50°12' W 000°43'2020.0
2014-Sep-28 08:33N 50°31' W 000°53'1717.0
2014-Sep-28 07:33N 50°46' W 001°05'2 2.4
2014-Sep-28 06:33N 50°49' W 001°06'1 0.8
2014-Sep-28 05:33N 50°48' W 001°07'1211.6
2014-Sep-28 04:33N 50°38' W 000°57'1212.0
2014-Sep-28 03:33N 50°27' W 000°52'1110.8
2014-Sep-28 02:33N 50°16' W 000°47'1111.4
2014-Sep-28 01:33N 50°06' W 000°41'1111.3
2014-Sep-28 00:33N 49°55' W 000°35'1111.3
2014-Sep-27 23:33N 49°45' W 000°28'1111.3
2014-Sep-27 22:33N 49°34' W 000°23'1111.4
2014-Sep-27 21:33N 49°23' W 000°16'6 6.1
2014-Sep-27 20:33N 49°17' W 000°15'0 0.0
2014-Sep-27 19:33N 49°17' W 000°15'1313.3
2014-Sep-27 18:33N 49°30' W 000°18'2120.4
2014-Sep-27 17:33N 49°49' W 000°30'2020.3
2014-Sep-27 16:33N 50°09' W 000°41'1919.1
2014-Sep-27 15:33N 50°27' W 000°50'1818.3
2014-Sep-27 14:33N 50°43' W 001°03'6 5.9
2014-Sep-27 13:33N 50°49' W 001°06'0 0.0
2014-Sep-27 12:33N 50°49' W 001°06'3 3.4
2014-Sep-27 11:34N 50°45' W 001°05'2019.9
2014-Sep-27 10:33N 50°27' W 000°54'2920.1
2014-Sep-27 09:07N 50°00' W 000°36'1119.8
2014-Sep-27 08:33N 49°50' W 000°30'2019.9
2014-Sep-27 07:33N 49°31' W 000°20'1414.2
2014-Sep-27 06:33N 49°17' W 000°15'0 0.0
2014-Sep-27 05:33N 49°17' W 000°15'0 0.1
2014-Sep-27 04:33N 49°17' W 000°15'1515.3
2014-Sep-27 03:33N 49°32' W 000°20'1514.7
2014-Sep-27 02:33N 49°45' W 000°31'2611.7
2014-Sep-27 00:19N 50°10' W 000°44'1012.3
2014-Sep-26 23:33N 50°19' W 000°48'1414.1
2014-Sep-26 22:33N 50°32' W 000°56'1615.7
2014-Sep-26 21:34N 50°47' W 001°06'2 2.0
2014-Sep-26 20:34N 50°49' W 001°06'0 0.0
2014-Sep-26 19:34N 50°49' W 001°06'0 0.0
2014-Sep-26 18:34N 50°49' W 001°06'5 5.3
2014-Sep-26 17:34N 50°44' W 001°03'1716.8
2014-Sep-26 16:33N 50°28' W 000°54'3416.7
2014-Sep-26 14:33N 49°57' W 000°35'1716.9
2014-Sep-26 13:33N 49°41' W 000°25'1717.2
2014-Sep-26 12:33N 49°25' W 000°17'7 7.4
2014-Sep-26 11:33N 49°17' W 000°15'0 0.0
2014-Sep-26 10:34N 49°17' W 000°15'0 0.0
2014-Sep-26 09:33N 49°17' W 000°15'0 0.0
2014-Sep-26 08:33N 49°17' W 000°15'0 0.0
2014-Sep-26 07:33N 49°17' W 000°15'0 0.0
2014-Sep-26 06:34N 49°17' W 000°15'0 0.0
2014-Sep-26 05:33N 49°17' W 000°15'7 7.1
2014-Sep-26 04:34N 49°24' W 000°16'1515.2
2014-Sep-26 03:33N 49°38' W 000°25'1515.0
2014-Sep-26 02:33N 49°52' W 000°34'2712.7
2014-Sep-26 00:26N 50°18' W 000°46'1516.7
2014-Sep-25 23:33N 50°32' W 000°55'1414.2
2014-Sep-25 22:34N 50°44' W 001°04'4 4.3
2014-Sep-25 21:33N 50°49' W 001°06'0 0.0
2014-Sep-25 20:33N 50°49' W 001°06'5 5.0
2014-Sep-25 19:33N 50°44' W 001°03'1918.7
2014-Sep-25 18:33N 50°27' W 000°51'3919.4
2014-Sep-25 16:33N 49°50' W 000°31'2019.6
2014-Sep-25 15:33N 49°31' W 000°23'1515.0
2014-Sep-25 14:33N 49°17' W 000°15'0 0.0
2014-Sep-25 13:33N 49°17' W 000°15'2 1.7
2014-Sep-25 12:33N 49°19' W 000°15'2019.8
2014-Sep-25 11:33N 49°38' W 000°24'4218.3
2014-Sep-25 09:16N 50°17' W 000°45'1520.0
2014-Sep-25 08:32N 50°31' W 000°54'1717.7
2014-Sep-25 07:33N 50°47' W 001°06'2 2.0
2014-Sep-25 06:34N 50°49' W 001°06'0 0.2
2014-Sep-25 05:33N 50°49' W 001°06'1313.5
2014-Sep-25 04:33N 50°36' W 000°58'1111.5
2014-Sep-25 03:33N 50°26' W 000°51'3411.1
2014-Sep-25 00:32N 49°54' W 000°34'1111.7
2014-Sep-24 23:34N 49°43' W 000°28'1111.4
2014-Sep-24 22:34N 49°33' W 000°21'1111.1
2014-Sep-24 21:33N 49°22' W 000°15'5 4.7
2014-Sep-24 20:33N 49°17' W 000°15'0 0.0
2014-Sep-24 19:33N 49°17' W 000°15'1111.0
2014-Sep-24 18:33N 49°28' W 000°17'2019.5
2014-Sep-24 17:33N 49°47' W 000°26'3818.7
2014-Sep-24 15:33N 50°22' W 000°46'1818.7
2014-Sep-24 14:33N 50°39' W 000°59'1110.9
2014-Sep-24 13:33N 50°49' W 001°06'0 0.0
2014-Sep-24 12:33N 50°49' W 001°06'4 3.7
2014-Sep-24 11:34N 50°45' W 001°05'2219.6
2014-Sep-24 10:25N 50°25' W 000°51'3719.9
2014-Sep-24 08:33N 49°50' W 000°30'1918.8
2014-Sep-24 07:33N 49°32' W 000°20'1515.4
2014-Sep-24 06:33N 49°17' W 000°15'0 0.0
2014-Sep-24 05:33N 49°17' W 000°15'0 0.1
2014-Sep-24 04:34N 49°17' W 000°15'1414.3
2014-Sep-24 03:33N 49°31' W 000°19'1515.2
2014-Sep-24 02:33N 49°45' W 000°29'4815.5
2014-Sep-23 23:27N 50°30' W 000°55'1415.7
2014-Sep-23 22:33N 50°43' W 001°03'6 5.7
2014-Sep-23 21:33N 50°49' W 001°06'0 0.0
2014-Sep-23 20:33N 50°49' W 001°06'5 5.1
2014-Sep-23 19:34N 50°44' W 001°03'1919.2
2014-Sep-23 18:33N 50°27' W 000°49'3919.7
2014-Sep-23 16:34N 49°49' W 000°31'2019.9
2014-Sep-23 15:34N 49°30' W 000°22'1413.5
2014-Sep-23 14:33N 49°17' W 000°15'0 0.0
2014-Sep-23 13:33N 49°17' W 000°15'2 2.5
2014-Sep-23 12:33N 49°20' W 000°14'2020.1
2014-Sep-23 11:33N 49°39' W 000°25'4120.4
2014-Sep-23 09:31N 50°18' W 000°46'1919.5
2014-Sep-23 08:33N 50°36' W 000°56'1514.6
2014-Sep-23 07:33N 50°49' W 001°06'0 0.1
2014-Sep-23 06:33N 50°49' W 001°06'0 0.2
2014-Sep-23 05:33N 50°49' W 001°06'2311.3
2014-Sep-23 03:33N 50°28' W 000°53'1111.1
2014-Sep-23 02:33N 50°17' W 000°47'2210.9
2014-Sep-23 00:32N 49°56' W 000°36'1212.1
2014-Sep-22 23:33N 49°45' W 000°29'1212.1
2014-Sep-22 22:34N 49°34' W 000°22'1211.7
2014-Sep-22 21:34N 49°23' W 000°16'6 5.9
2014-Sep-22 20:34N 49°17' W 000°15'0 0.0
2014-Sep-22 19:33N 49°17' W 000°15'0 0.0
2014-Sep-22 18:33N 49°17' W 000°15'0 0.0
2014-Sep-22 17:34N 49°17' W 000°15'0 0.0
2014-Sep-22 16:34N 49°17' W 000°15'0 0.0
2014-Sep-22 15:33N 49°17' W 000°15'0 0.0
2014-Sep-22 14:34N 49°17' W 000°15'0 0.0
2014-Sep-22 13:33N 49°17' W 000°15'2 2.4
2014-Sep-22 12:33N 49°20' W 000°15'2020.0
2014-Sep-22 11:33N 49°39' W 000°24'4520.1
2014-Sep-22 09:19N 50°21' W 000°48'1519.5
2014-Sep-22 08:33N 50°35' W 000°57'1515.1
2014-Sep-22 07:33N 50°49' W 001°07'1 0.6
2014-Sep-22 06:33N 50°49' W 001°06'0 0.2
2014-Sep-22 05:33N 50°49' W 001°06'1312.6
2014-Sep-22 04:34N 50°37' W 000°58'1111.3
2014-Sep-22 03:34N 50°27' W 000°52'1111.0
2014-Sep-22 02:33N 50°16' W 000°45'2311.0
2014-Sep-22 00:29N 49°55' W 000°34'1111.4
2014-Sep-21 23:34N 49°45' W 000°28'1211.5
2014-Sep-21 22:33N 49°34' W 000°22'1111.5
2014-Sep-21 21:34N 49°23' W 000°16'  
Track history (hours):
 
Tides and Currents Weather Stations Pressure Air Temp Water Temp Dewpoint Dewpoint Depression Visibility Wind Speed Wind Dir Waves Ship Positions

Mont Saint Michel

Last reported at 2014-Oct-01 21:33 UTC. Time now 2014-Oct-01 22:30 UTC.
Position N 49°23' W 000°16'.

Length 173 m; beam 29 m.

Type: Ship. MMSI: 227023100.

Date/timePositionNaut miles runAvg speedWind from/ knotsBaromVisibWave heightAir tempDewpointWater temp
2014-Oct-01 21:33N 49°23' W 000°16'6 5.7
2014-Oct-01 20:33N 49°17' W 000°15'0 0.0
2014-Oct-01 19:33N 49°17' W 000°15'1111.1
2014-Oct-01 18:34N 49°28' W 000°16'1818.4
2014-Oct-01 17:34N 49°45' W 000°27'1918.5
2014-Oct-01 16:33N 50°03' W 000°38'2119.1
2014-Oct-01 15:27N 50°22' W 000°50'1719.2
2014-Oct-01 14:34N 50°38' W 000°58'1111.3
2014-Oct-01 13:33N 50°49' W 001°06'0 0.0
2014-Oct-01 12:33N 50°49' W 001°06'5 5.1
2014-Oct-01 11:33N 50°44' W 001°03'1818.3
2014-Oct-01 10:33N 50°27' W 000°51'4019.9
2014-Oct-01 08:33N 49°49' W 000°32'2019.7
2014-Oct-01 07:33N 49°31' W 000°20'1414.2
2014-Oct-01 06:33N 49°17' W 000°15'0 0.0
2014-Oct-01 05:33N 49°17' W 000°15'0 0.1
2014-Oct-01 04:33N 49°17' W 000°15'1414.1
2014-Oct-01 03:33N 49°31' W 000°20'1211.6
2014-Oct-01 02:33N 49°42' W 000°26'1212.5
2014-Oct-01 01:33N 49°54' W 000°33'2416.7
2014-Oct-01 00:07N 50°16' W 000°45'916.4
2014-Sep-30 23:33N 50°25' W 000°51'1616.2
2014-Sep-30 22:33N 50°40' W 000°58'10 9.8
2014-Sep-30 21:33N 50°49' W 001°06'0 0.0
2014-Sep-30 20:33N 50°49' W 001°06'5 5.2
2014-Sep-30 19:33N 50°44' W 001°03'1817.7
2014-Sep-30 18:33N 50°27' W 000°54'2819.6
2014-Sep-30 17:08N 50°01' W 000°39'1220.3
2014-Sep-30 16:33N 49°50' W 000°33'2020.3
2014-Sep-30 15:33N 49°31' W 000°22'1414.3
2014-Sep-30 14:33N 49°17' W 000°15'0 0.0
2014-Sep-30 13:33N 49°17' W 000°15'0 0.0
2014-Sep-30 12:33N 49°17' W 000°15'1717.0
2014-Sep-30 11:33N 49°34' W 000°21'6321.1
2014-Sep-30 08:33N 50°33' W 000°56'1716.6
2014-Sep-30 07:33N 50°48' W 001°07'1 0.9
2014-Sep-30 06:33N 50°49' W 001°06'0 0.1
2014-Sep-30 05:33N 50°49' W 001°06'1312.8
2014-Sep-30 04:33N 50°37' W 000°58'1111.2
2014-Sep-30 03:33N 50°26' W 000°52'1311.4
2014-Sep-30 02:24N 50°14' W 000°45'1011.9
2014-Sep-30 01:33N 50°04' W 000°40'1111.4
2014-Sep-30 00:33N 49°54' W 000°34'1111.5
2014-Sep-29 23:33N 49°43' W 000°28'1111.4
2014-Sep-29 22:33N 49°32' W 000°21'1111.2
2014-Sep-29 21:33N 49°22' W 000°15'5 4.5
2014-Sep-29 20:33N 49°17' W 000°15'0 0.0
2014-Sep-29 19:33N 49°17' W 000°15'0 0.0
2014-Sep-29 18:33N 49°17' W 000°15'0 0.0
2014-Sep-29 17:33N 49°17' W 000°15'0 0.0
2014-Sep-29 16:33N 49°17' W 000°15'0 0.0
2014-Sep-29 15:32N 49°17' W 000°15'0 0.0
2014-Sep-29 14:33N 49°17' W 000°15'0 0.0
2014-Sep-29 13:33N 49°17' W 000°15'3 2.7
2014-Sep-29 12:33N 49°20' W 000°14'2020.4
2014-Sep-29 11:33N 49°39' W 000°25'4419.8
2014-Sep-29 09:20N 50°20' W 000°51'1519.6
2014-Sep-29 08:33N 50°35' W 000°58'1514.6
2014-Sep-29 07:33N 50°48' W 001°07'1 0.9
2014-Sep-29 06:34N 50°49' W 001°06'1 1.3
2014-Sep-29 05:33N 50°47' W 001°07'1212.1
2014-Sep-29 04:33N 50°37' W 000°58'1110.7
2014-Sep-29 03:33N 50°26' W 000°54'1111.2
2014-Sep-29 02:33N 50°16' W 000°48'1211.6
2014-Sep-29 01:33N 50°05' W 000°41'1111.5
2014-Sep-29 00:33N 49°55' W 000°34'1111.3
2014-Sep-28 23:33N 49°44' W 000°27'1111.4
2014-Sep-28 22:33N 49°33' W 000°22'1111.3
2014-Sep-28 21:33N 49°23' W 000°16'5 5.4
2014-Sep-28 20:34N 49°17' W 000°15'0 0.0
2014-Sep-28 19:33N 49°17' W 000°15'0 0.0
2014-Sep-28 18:33N 49°17' W 000°15'0 0.0
2014-Sep-28 17:34N 49°17' W 000°15'0 0.0
2014-Sep-28 16:33N 49°17' W 000°15'0 0.0
2014-Sep-28 15:33N 49°17' W 000°15'0 0.0
2014-Sep-28 14:34N 49°17' W 000°15'0 0.0
2014-Sep-28 13:33N 49°17' W 000°15'5 5.4
2014-Sep-28 12:33N 49°23' W 000°14'1716.8
2014-Sep-28 11:33N 49°38' W 000°24'1817.1
2014-Sep-28 10:32N 49°55' W 000°33'1819.0
2014-Sep-28 09:33N 50°12' W 000°43'2020.0
2014-Sep-28 08:33N 50°31' W 000°53'1717.0
2014-Sep-28 07:33N 50°46' W 001°05'2 2.4
2014-Sep-28 06:33N 50°49' W 001°06'1 0.8
2014-Sep-28 05:33N 50°48' W 001°07'1211.6
2014-Sep-28 04:33N 50°38' W 000°57'1212.0
2014-Sep-28 03:33N 50°27' W 000°52'1110.8
2014-Sep-28 02:33N 50°16' W 000°47'1111.4
2014-Sep-28 01:33N 50°06' W 000°41'1111.3
2014-Sep-28 00:33N 49°55' W 000°35'1111.3
2014-Sep-27 23:33N 49°45' W 000°28'1111.3
2014-Sep-27 22:33N 49°34' W 000°23'1111.4
2014-Sep-27 21:33N 49°23' W 000°16'6 6.1
2014-Sep-27 20:33N 49°17' W 000°15'0 0.0
2014-Sep-27 19:33N 49°17' W 000°15'1313.3
2014-Sep-27 18:33N 49°30' W 000°18'2120.4
2014-Sep-27 17:33N 49°49' W 000°30'2020.3
2014-Sep-27 16:33N 50°09' W 000°41'1919.1
2014-Sep-27 15:33N 50°27' W 000°50'1818.3
2014-Sep-27 14:33N 50°43' W 001°03'6 5.9
2014-Sep-27 13:33N 50°49' W 001°06'0 0.0
2014-Sep-27 12:33N 50°49' W 001°06'3 3.4
2014-Sep-27 11:34N 50°45' W 001°05'2019.9
2014-Sep-27 10:33N 50°27' W 000°54'2920.1
2014-Sep-27 09:07N 50°00' W 000°36'1119.8
2014-Sep-27 08:33N 49°50' W 000°30'2019.9
2014-Sep-27 07:33N 49°31' W 000°20'1414.2
2014-Sep-27 06:33N 49°17' W 000°15'0 0.0
2014-Sep-27 05:33N 49°17' W 000°15'0 0.1
2014-Sep-27 04:33N 49°17' W 000°15'1515.3
2014-Sep-27 03:33N 49°32' W 000°20'1514.7
2014-Sep-27 02:33N 49°45' W 000°31'2611.7
2014-Sep-27 00:19N 50°10' W 000°44'1012.3
2014-Sep-26 23:33N 50°19' W 000°48'1414.1
2014-Sep-26 22:33N 50°32' W 000°56'1615.7
2014-Sep-26 21:34N 50°47' W 001°06'2 2.0
2014-Sep-26 20:34N 50°49' W 001°06'0 0.0
2014-Sep-26 19:34N 50°49' W 001°06'0 0.0
2014-Sep-26 18:34N 50°49' W 001°06'5 5.3
2014-Sep-26 17:34N 50°44' W 001°03'1716.8
2014-Sep-26 16:33N 50°28' W 000°54'3416.7
2014-Sep-26 14:33N 49°57' W 000°35'1716.9
2014-Sep-26 13:33N 49°41' W 000°25'1717.2
2014-Sep-26 12:33N 49°25' W 000°17'7 7.4
2014-Sep-26 11:33N 49°17' W 000°15'0 0.0
2014-Sep-26 10:34N 49°17' W 000°15'0 0.0
2014-Sep-26 09:33N 49°17' W 000°15'0 0.0
2014-Sep-26 08:33N 49°17' W 000°15'0 0.0
2014-Sep-26 07:33N 49°17' W 000°15'0 0.0
2014-Sep-26 06:34N 49°17' W 000°15'0 0.0
2014-Sep-26 05:33N 49°17' W 000°15'7 7.1
2014-Sep-26 04:34N 49°24' W 000°16'1515.2
2014-Sep-26 03:33N 49°38' W 000°25'1515.0
2014-Sep-26 02:33N 49°52' W 000°34'2712.7
2014-Sep-26 00:26N 50°18' W 000°46'1516.7
2014-Sep-25 23:33N 50°32' W 000°55'1414.2
2014-Sep-25 22:34N 50°44' W 001°04'4 4.3
2014-Sep-25 21:33N 50°49' W 001°06'0 0.0
2014-Sep-25 20:33N 50°49' W 001°06'5 5.0
2014-Sep-25 19:33N 50°44' W 001°03'1918.7
2014-Sep-25 18:33N 50°27' W 000°51'3919.4
2014-Sep-25 16:33N 49°50' W 000°31'2019.6
2014-Sep-25 15:33N 49°31' W 000°23'1515.0
2014-Sep-25 14:33N 49°17' W 000°15'0 0.0
2014-Sep-25 13:33N 49°17' W 000°15'2 1.7
2014-Sep-25 12:33N 49°19' W 000°15'2019.8
2014-Sep-25 11:33N 49°38' W 000°24'4218.3
2014-Sep-25 09:16N 50°17' W 000°45'1520.0
2014-Sep-25 08:32N 50°31' W 000°54'1717.7
2014-Sep-25 07:33N 50°47' W 001°06'2 2.0
2014-Sep-25 06:34N 50°49' W 001°06'0 0.2
2014-Sep-25 05:33N 50°49' W 001°06'1313.5
2014-Sep-25 04:33N 50°36' W 000°58'1111.5
2014-Sep-25 03:33N 50°26' W 000°51'3411.1
2014-Sep-25 00:32N 49°54' W 000°34'1111.7
2014-Sep-24 23:34N 49°43' W 000°28'1111.4
2014-Sep-24 22:34N 49°33' W 000°21'1111.1
2014-Sep-24 21:33N 49°22' W 000°15'5 4.7
2014-Sep-24 20:33N 49°17' W 000°15'0 0.0
2014-Sep-24 19:33N 49°17' W 000°15'1111.0
2014-Sep-24 18:33N 49°28' W 000°17'2019.5
2014-Sep-24 17:33N 49°47' W 000°26'3818.7
2014-Sep-24 15:33N 50°22' W 000°46'1818.7
2014-Sep-24 14:33N 50°39' W 000°59'1110.9
2014-Sep-24 13:33N 50°49' W 001°06'0 0.0
2014-Sep-24 12:33N 50°49' W 001°06'4 3.7
2014-Sep-24 11:34N 50°45' W 001°05'2219.6
2014-Sep-24 10:25N 50°25' W 000°51'3719.9
2014-Sep-24 08:33N 49°50' W 000°30'1918.8
2014-Sep-24 07:33N 49°32' W 000°20'1515.4
2014-Sep-24 06:33N 49°17' W 000°15'0 0.0
2014-Sep-24 05:33N 49°17' W 000°15'0 0.1
2014-Sep-24 04:34N 49°17' W 000°15'1414.3
2014-Sep-24 03:33N 49°31' W 000°19'1515.2
2014-Sep-24 02:33N 49°45' W 000°29'4815.5
2014-Sep-23 23:27N 50°30' W 000°55'1415.7
2014-Sep-23 22:33N 50°43' W 001°03'6 5.7
2014-Sep-23 21:33N 50°49' W 001°06'0 0.0
2014-Sep-23 20:33N 50°49' W 001°06'5 5.1
2014-Sep-23 19:34N 50°44' W 001°03'1919.2
2014-Sep-23 18:33N 50°27' W 000°49'3919.7
2014-Sep-23 16:34N 49°49' W 000°31'2019.9
2014-Sep-23 15:34N 49°30' W 000°22'1413.5
2014-Sep-23 14:33N 49°17' W 000°15'0 0.0
2014-Sep-23 13:33N 49°17' W 000°15'2 2.5
2014-Sep-23 12:33N 49°20' W 000°14'2020.1
2014-Sep-23 11:33N 49°39' W 000°25'4120.4
2014-Sep-23 09:31N 50°18' W 000°46'1919.5
2014-Sep-23 08:33N 50°36' W 000°56'1514.6
2014-Sep-23 07:33N 50°49' W 001°06'0 0.1
2014-Sep-23 06:33N 50°49' W 001°06'0 0.2
2014-Sep-23 05:33N 50°49' W 001°06'2311.3
2014-Sep-23 03:33N 50°28' W 000°53'1111.1
2014-Sep-23 02:33N 50°17' W 000°47'2210.9
2014-Sep-23 00:32N 49°56' W 000°36'1212.1
2014-Sep-22 23:33N 49°45' W 000°29'1212.1
2014-Sep-22 22:34N 49°34' W 000°22'1211.7
2014-Sep-22 21:34N 49°23' W 000°16'6 5.9
2014-Sep-22 20:34N 49°17' W 000°15'0 0.0
2014-Sep-22 19:33N 49°17' W 000°15'0 0.0
2014-Sep-22 18:33N 49°17' W 000°15'0 0.0
2014-Sep-22 17:34N 49°17' W 000°15'0 0.0
2014-Sep-22 16:34N 49°17' W 000°15'0 0.0
2014-Sep-22 15:33N 49°17' W 000°15'0 0.0
2014-Sep-22 14:34N 49°17' W 000°15'0 0.0
2014-Sep-22 13:33N 49°17' W 000°15'2 2.4
2014-Sep-22 12:33N 49°20' W 000°15'2020.0
2014-Sep-22 11:33N 49°39' W 000°24'4520.1
2014-Sep-22 09:19N 50°21' W 000°48'1519.5
2014-Sep-22 08:33N 50°35' W 000°57'1515.1
2014-Sep-22 07:33N 50°49' W 001°07'1 0.6
2014-Sep-22 06:33N 50°49' W 001°06'0 0.2
2014-Sep-22 05:33N 50°49' W 001°06'1312.6
2014-Sep-22 04:34N 50°37' W 000°58'1111.3
2014-Sep-22 03:34N 50°27' W 000°52'1111.0
2014-Sep-22 02:33N 50°16' W 000°45'2311.0
2014-Sep-22 00:29N 49°55' W 000°34'1111.4
2014-Sep-21 23:34N 49°45' W 000°28'1211.5
2014-Sep-21 22:33N 49°34' W 000°22'1111.5
2014-Sep-21 21:34N 49°23' W 000°16'  

Dump ship's entire track history